createdAt,value
2019-03-17T00:00:13.772Z,989.8
2019-03-17T00:01:15.831Z,989.8
2019-03-17T00:02:18.149Z,989.8
2019-03-17T00:03:20.178Z,989.8
2019-03-17T00:04:32.037Z,989.7
2019-03-17T00:05:34.205Z,989.7
2019-03-17T00:06:36.237Z,989.7
2019-03-17T00:07:38.268Z,989.7
2019-03-17T00:08:40.318Z,989.8
2019-03-17T00:09:42.628Z,989.6
2019-03-17T00:10:44.745Z,989.7
2019-03-17T00:11:46.786Z,989.6
2019-03-17T00:12:49.115Z,989.7
2019-03-17T00:13:51.145Z,989.6
2019-03-17T00:15:06.476Z,989.6
2019-03-17T00:16:08.738Z,989.6
2019-03-17T00:17:10.770Z,989.6
2019-03-17T00:18:13.118Z,989.6
2019-03-17T00:19:15.168Z,989.5
2019-03-17T00:20:17.195Z,989.6
2019-03-17T00:21:19.544Z,989.5
2019-03-17T00:22:21.856Z,989.6
2019-03-17T00:23:24.158Z,989.5
2019-03-17T00:24:26.208Z,989.6
2019-03-17T00:25:28.247Z,989.5
2019-03-17T00:26:30.284Z,989.5
2019-03-17T00:27:32.376Z,989.5
2019-03-17T00:28:34.495Z,989.5
2019-03-17T00:29:36.814Z,989.5
2019-03-17T00:30:38.855Z,989.5
2019-03-17T00:31:40.895Z,989.4
2019-03-17T00:32:43.205Z,989.4
2019-03-17T00:33:45.528Z,989.5
2019-03-17T00:34:47.664Z,989.5
2019-03-17T00:35:53.148Z,989.4
2019-03-17T00:36:55.181Z,989.4
2019-03-17T00:37:57.516Z,989.4
2019-03-17T00:38:59.570Z,989.3
2019-03-17T00:40:01.624Z,989.3
2019-03-17T00:41:03.669Z,989.4
2019-03-17T00:42:05.997Z,989.3
2019-03-17T00:43:08.017Z,989.3
2019-03-17T00:44:10.063Z,989.3
2019-03-17T00:45:12.335Z,989.3
2019-03-17T00:46:14.378Z,989.3
2019-03-17T00:47:16.411Z,989.3
2019-03-17T00:48:18.751Z,989.2
2019-03-17T00:49:20.776Z,989.3
2019-03-17T00:50:23.100Z,989.2
2019-03-17T00:51:25.157Z,989.2
2019-03-17T00:52:27.190Z,989.3
2019-03-17T00:53:29.243Z,989.2
2019-03-17T00:54:31.287Z,989.3
2019-03-17T00:55:33.331Z,989.2
2019-03-17T00:56:35.645Z,989.2
2019-03-17T00:57:37.687Z,989.2
2019-03-17T00:58:39.729Z,989.2
2019-03-17T00:59:42.054Z,989.2
2019-03-17T01:00:44.172Z,989.2
2019-03-17T01:01:46.241Z,989.1
2019-03-17T01:02:48.266Z,989.1
2019-03-17T01:03:50.326Z,989.1
2019-03-17T01:04:56.787Z,989.1
2019-03-17T01:05:59.129Z,989.1
2019-03-17T01:07:01.187Z,989
2019-03-17T01:08:03.601Z,989
2019-03-17T01:09:05.647Z,989
2019-03-17T01:10:07.685Z,988.9
2019-03-17T01:11:09.723Z,989
2019-03-17T01:12:11.755Z,989
2019-03-17T01:13:13.798Z,989.1
2019-03-17T01:14:15.829Z,989
2019-03-17T01:15:17.878Z,989
2019-03-17T01:16:19.902Z,989
2019-03-17T01:17:21.949Z,989
2019-03-17T01:18:24.377Z,989
2019-03-17T01:19:26.424Z,988.9
2019-03-17T01:20:28.445Z,988.9
2019-03-17T01:21:30.499Z,988.9
2019-03-17T01:22:32.535Z,989
2019-03-17T01:23:34.847Z,989
2019-03-17T01:24:36.892Z,988.8
2019-03-17T01:25:39.512Z,988.9
2019-03-17T01:26:41.823Z,988.9
2019-03-17T01:27:43.877Z,988.9
2019-03-17T01:28:45.920Z,988.7
2019-03-17T01:29:47.952Z,988.8
2019-03-17T01:30:49.993Z,988.9
2019-03-17T01:31:52.402Z,988.9
2019-03-17T01:32:54.435Z,988.8
2019-03-17T01:33:56.472Z,988.9
2019-03-17T01:35:09.991Z,988.7
2019-03-17T01:36:12.718Z,988.7
2019-03-17T01:37:14.773Z,988.8
2019-03-17T01:38:17.109Z,988.7
2019-03-17T01:39:19.422Z,988.7
2019-03-17T01:40:21.471Z,988.7
2019-03-17T01:41:23.524Z,988.7
2019-03-17T01:42:25.952Z,988.8
2019-03-17T01:43:28.254Z,988.6
2019-03-17T01:44:30.566Z,988.8
2019-03-17T01:45:32.594Z,988.6
2019-03-17T01:46:34.632Z,988.6
2019-03-17T01:47:37.113Z,988.6
2019-03-17T01:48:39.143Z,988.5
2019-03-17T01:49:41.203Z,988.5
2019-03-17T01:50:43.230Z,988.6
2019-03-17T01:51:45.266Z,988.6
2019-03-17T01:52:47.295Z,988.6
2019-03-17T01:53:49.629Z,988.5
2019-03-17T01:54:51.663Z,988.5
2019-03-17T01:55:53.704Z,988.5
2019-03-17T01:56:55.748Z,988.5
2019-03-17T01:57:57.765Z,988.5
2019-03-17T01:58:59.828Z,988.4
2019-03-17T02:00:01.881Z,988.4
2019-03-17T02:01:04.219Z,988.3
2019-03-17T02:02:06.266Z,988.3
2019-03-17T02:03:08.303Z,988.3
2019-03-17T02:04:10.335Z,988.3
2019-03-17T02:05:22.567Z,988.6
2019-03-17T02:06:25.007Z,988.4
2019-03-17T02:07:27.413Z,988.3
2019-03-17T02:08:29.734Z,988.2
2019-03-17T02:09:31.781Z,988.3
2019-03-17T02:10:34.082Z,988.3
2019-03-17T02:11:36.122Z,988.3
2019-03-17T02:12:38.164Z,988.3
2019-03-17T02:13:40.574Z,988.3
2019-03-17T02:14:42.912Z,988.2
2019-03-17T02:15:45.217Z,988.2
2019-03-17T02:16:47.254Z,988.1
2019-03-17T02:17:49.565Z,988
2019-03-17T02:18:51.611Z,988.1
2019-03-17T02:19:53.719Z,988
2019-03-17T02:20:55.771Z,988
2019-03-17T02:21:57.813Z,987.9
2019-03-17T02:23:00.121Z,988.1
2019-03-17T02:24:02.173Z,988
2019-03-17T02:25:04.773Z,988
2019-03-17T02:26:06.814Z,988
2019-03-17T02:27:08.835Z,987.9
2019-03-17T02:28:10.871Z,988.1
2019-03-17T02:29:12.906Z,987.9
2019-03-17T02:30:14.966Z,988
2019-03-17T02:31:16.996Z,987.9
2019-03-17T02:32:19.057Z,988
2019-03-17T02:33:21.800Z,987.8
2019-03-17T02:34:24.850Z,987.9
2019-03-17T02:35:40.202Z,987.8
2019-03-17T02:36:42.782Z,987.8
2019-03-17T02:37:44.823Z,987.8
2019-03-17T02:38:47.873Z,987.8
2019-03-17T02:39:50.314Z,987.8
2019-03-17T02:40:52.646Z,987.7
2019-03-17T02:41:55.362Z,987.8
2019-03-17T02:42:57.709Z,987.9
2019-03-17T02:43:59.755Z,987.8
2019-03-17T02:45:01.866Z,987.7
2019-03-17T02:46:04.320Z,987.7
2019-03-17T02:47:06.651Z,987.8
2019-03-17T02:48:09.014Z,987.7
2019-03-17T02:49:11.065Z,987.7
2019-03-17T02:50:13.142Z,987.7
2019-03-17T02:51:15.741Z,987.7
2019-03-17T02:52:18.383Z,987.6
2019-03-17T02:53:20.467Z,987.6
2019-03-17T02:54:22.517Z,987.7
2019-03-17T02:55:24.655Z,987.7
2019-03-17T02:56:26.768Z,987.6
2019-03-17T02:57:28.816Z,987.6
2019-03-17T02:58:30.861Z,987.6
2019-03-17T02:59:32.913Z,987.7
2019-03-17T03:00:35.331Z,987.7
2019-03-17T03:01:37.787Z,987.7
2019-03-17T03:02:39.843Z,987.7
2019-03-17T03:03:42.279Z,987.6
2019-03-17T03:04:44.364Z,987.6
2019-03-17T03:05:55.826Z,987.7
2019-03-17T03:06:58.910Z,987.5
2019-03-17T03:08:00.959Z,987.6
2019-03-17T03:09:02.989Z,987.6
2019-03-17T03:10:05.751Z,987.6
2019-03-17T03:11:08.467Z,987.6
2019-03-17T03:12:11.101Z,987.6
2019-03-17T03:13:13.841Z,987.5
2019-03-17T03:14:16.503Z,987.5
2019-03-17T03:15:18.555Z,987.5
2019-03-17T03:16:20.604Z,987.4
2019-03-17T03:17:23.371Z,987.4
2019-03-17T03:18:25.427Z,987.4
2019-03-17T03:19:27.469Z,987.4
2019-03-17T03:20:29.814Z,987.4
2019-03-17T03:21:32.150Z,987.4
2019-03-17T03:22:34.199Z,987.4
2019-03-17T03:23:36.536Z,987.4
2019-03-17T03:24:38.588Z,987.4
2019-03-17T03:25:40.611Z,987.4
2019-03-17T03:26:42.668Z,987.3
2019-03-17T03:27:45.005Z,987.4
2019-03-17T03:28:47.039Z,987.3
2019-03-17T03:29:49.840Z,987.3
2019-03-17T03:30:52.258Z,987.3
2019-03-17T03:31:54.943Z,987.1
2019-03-17T03:32:57.423Z,987.3
2019-03-17T03:33:59.852Z,987.3
2019-03-17T03:35:03.032Z,987.3
2019-03-17T03:36:12.146Z,987.3
2019-03-17T03:37:14.302Z,987.3
2019-03-17T03:38:16.331Z,987.3
2019-03-17T03:39:18.779Z,987.3
2019-03-17T03:40:20.834Z,987.3
2019-03-17T03:41:22.876Z,987.3
2019-03-17T03:42:25.412Z,987.2
2019-03-17T03:43:27.465Z,987.2
2019-03-17T03:44:29.819Z,987
2019-03-17T03:45:31.870Z,987.2
2019-03-17T03:46:34.238Z,987
2019-03-17T03:47:36.299Z,987
2019-03-17T03:48:39.007Z,987
2019-03-17T03:49:41.609Z,987.1
2019-03-17T03:50:44.062Z,987
2019-03-17T03:51:46.126Z,987
2019-03-17T03:52:48.166Z,987
2019-03-17T03:53:50.250Z,987
2019-03-17T03:54:52.575Z,987
2019-03-17T03:55:54.640Z,986.9
2019-03-17T03:56:57.005Z,987
2019-03-17T03:57:59.071Z,986.9
2019-03-17T03:59:01.114Z,986.9
2019-03-17T04:00:03.737Z,987
2019-03-17T04:01:06.106Z,986.9
2019-03-17T04:02:08.415Z,986.9
2019-03-17T04:03:10.766Z,986.9
2019-03-17T04:04:13.941Z,986.8
2019-03-17T04:05:16.391Z,986.8
2019-03-17T04:06:27.282Z,986.8
2019-03-17T04:07:29.739Z,986.7
2019-03-17T04:08:32.091Z,986.6
2019-03-17T04:09:34.142Z,986.6
2019-03-17T04:10:36.494Z,986.5
2019-03-17T04:11:38.528Z,986.6
2019-03-17T04:12:40.624Z,986.4
2019-03-17T04:13:43.196Z,986.5
2019-03-17T04:14:45.229Z,986.5
2019-03-17T04:15:47.568Z,986.5
2019-03-17T04:16:50.005Z,986.5
2019-03-17T04:17:52.350Z,986.5
2019-03-17T04:18:55.466Z,986.5
2019-03-17T04:19:57.519Z,986.5
2019-03-17T04:20:59.954Z,986.4
2019-03-17T04:22:02.569Z,986.4
2019-03-17T04:23:05.014Z,986.5
2019-03-17T04:24:07.448Z,986.6
2019-03-17T04:25:10.384Z,986.5
2019-03-17T04:26:12.714Z,986.6
2019-03-17T04:27:14.752Z,986.4
2019-03-17T04:28:17.385Z,986.5
2019-03-17T04:29:19.481Z,986.5
2019-03-17T04:30:21.893Z,986.6
2019-03-17T04:31:24.729Z,986.6
2019-03-17T04:32:26.766Z,986.5
2019-03-17T04:33:28.801Z,986.5
2019-03-17T04:34:30.845Z,986.6
2019-03-17T04:35:32.911Z,986.6
2019-03-17T04:36:40.896Z,986.6
2019-03-17T04:37:42.973Z,986.7
2019-03-17T04:38:45.016Z,986.6
2019-03-17T04:39:47.558Z,986.7
2019-03-17T04:40:49.590Z,986.6
2019-03-17T04:41:51.940Z,986.6
2019-03-17T04:42:53.971Z,986.6
2019-03-17T04:43:55.993Z,986.6
2019-03-17T04:44:58.043Z,986.6
2019-03-17T04:46:00.458Z,986.6
2019-03-17T04:47:02.510Z,986.5
2019-03-17T04:48:04.548Z,986.5
2019-03-17T04:49:06.583Z,986.6
2019-03-17T04:50:08.642Z,986.5
2019-03-17T04:51:10.991Z,986.5
2019-03-17T04:52:13.051Z,986.6
2019-03-17T04:53:15.083Z,986.5
2019-03-17T04:54:17.135Z,986.6
2019-03-17T04:55:19.453Z,986.5
2019-03-17T04:56:21.555Z,986.5
2019-03-17T04:57:23.599Z,986.5
2019-03-17T04:58:25.644Z,986.5
2019-03-17T04:59:27.679Z,986.5
2019-03-17T05:00:29.711Z,986.5
2019-03-17T05:01:31.834Z,986.5
2019-03-17T05:02:33.873Z,986.4
2019-03-17T05:03:35.913Z,986.5
2019-03-17T05:04:37.934Z,986.5
2019-03-17T05:05:39.974Z,986.6
2019-03-17T05:06:53.311Z,986.5
2019-03-17T05:07:55.371Z,986.5
2019-03-17T05:08:57.412Z,986.5
2019-03-17T05:09:59.435Z,986.5
2019-03-17T05:11:01.649Z,986.6
2019-03-17T05:12:03.767Z,986.4
2019-03-17T05:13:06.190Z,986.4
2019-03-17T05:14:08.311Z,986.4
2019-03-17T05:15:10.353Z,986.4
2019-03-17T05:16:12.684Z,986.5
2019-03-17T05:17:14.720Z,986.5
2019-03-17T05:18:16.778Z,986.5
2019-03-17T05:19:18.801Z,986.4
2019-03-17T05:20:21.121Z,986.5
2019-03-17T05:21:23.163Z,986.5
2019-03-17T05:22:25.192Z,986.4
2019-03-17T05:23:27.232Z,986.4
2019-03-17T05:24:29.270Z,986.4
2019-03-17T05:25:31.297Z,986.4
2019-03-17T05:26:33.341Z,986.3
2019-03-17T05:27:35.386Z,986.4
2019-03-17T05:28:37.422Z,986.2
2019-03-17T05:29:39.447Z,986.4
2019-03-17T05:30:41.498Z,986.4
2019-03-17T05:31:43.534Z,986.3
2019-03-17T05:32:45.566Z,986.3
2019-03-17T05:33:47.886Z,986.3
2019-03-17T05:34:50.295Z,986.4
2019-03-17T05:35:52.337Z,986.3
2019-03-17T05:37:06.890Z,986.4
2019-03-17T05:38:09.129Z,986.4
2019-03-17T05:39:11.459Z,986.4
2019-03-17T05:40:13.487Z,986.4
2019-03-17T05:41:15.530Z,986.5
2019-03-17T05:42:17.576Z,986.5
2019-03-17T05:43:19.598Z,986.4
2019-03-17T05:44:21.639Z,986.3
2019-03-17T05:45:23.671Z,986.4
2019-03-17T05:46:26.002Z,986.5
2019-03-17T05:47:28.031Z,986.3
2019-03-17T05:48:30.070Z,986.4
2019-03-17T05:49:32.097Z,986.4
2019-03-17T05:50:34.146Z,986.4
2019-03-17T05:51:36.193Z,986.4
2019-03-17T05:52:38.626Z,986.4
2019-03-17T05:53:40.782Z,986.3
2019-03-17T05:54:42.828Z,986.3
2019-03-17T05:55:45.178Z,986.3
2019-03-17T05:56:47.211Z,986.2
2019-03-17T05:57:49.246Z,986.3
2019-03-17T05:58:51.340Z,986.3
2019-03-17T05:59:53.374Z,986.2
2019-03-17T06:00:55.416Z,986.2
2019-03-17T06:01:57.454Z,986.3
2019-03-17T06:02:59.485Z,986.3
2019-03-17T06:04:01.525Z,986.2
2019-03-17T06:05:03.574Z,986.4
2019-03-17T06:06:05.599Z,986.3
2019-03-17T06:07:19.255Z,986.3
2019-03-17T06:08:21.351Z,986.3
2019-03-17T06:09:23.393Z,986.3
2019-03-17T06:10:25.424Z,986.2
2019-03-17T06:11:27.459Z,986.3
2019-03-17T06:12:29.484Z,986.2
2019-03-17T06:13:31.919Z,986.2
2019-03-17T06:14:34.022Z,986.3
2019-03-17T06:15:36.325Z,986.2
2019-03-17T06:16:38.766Z,986.3
2019-03-17T06:17:41.760Z,986.3
2019-03-17T06:18:44.077Z,986.2
2019-03-17T06:19:46.388Z,986.3
2019-03-17T06:20:48.701Z,986.2
2019-03-17T06:21:50.738Z,986.2
2019-03-17T06:22:52.766Z,986.2
2019-03-17T06:23:54.793Z,986.1
2019-03-17T06:24:56.849Z,986.2
2019-03-17T06:25:59.586Z,986.2
2019-03-17T06:27:01.625Z,986.3
2019-03-17T06:28:03.666Z,986.1
2019-03-17T06:29:05.704Z,986.2
2019-03-17T06:30:08.014Z,986.2
2019-03-17T06:31:10.059Z,986
2019-03-17T06:32:12.126Z,986.2
2019-03-17T06:33:14.439Z,986.3
2019-03-17T06:34:16.878Z,986.2
2019-03-17T06:35:18.912Z,986.2
2019-03-17T06:36:21.027Z,986.3
2019-03-17T06:37:31.534Z,986.3
2019-03-17T06:38:33.577Z,986.3
2019-03-17T06:39:35.607Z,986.3
2019-03-17T06:40:37.648Z,986.3
2019-03-17T06:41:39.682Z,986.2
2019-03-17T06:42:41.731Z,986.3
2019-03-17T06:43:43.771Z,986.3
2019-03-17T06:44:46.087Z,986.3
2019-03-17T06:45:48.114Z,986.2
2019-03-17T06:46:50.154Z,986.3
2019-03-17T06:47:52.196Z,986.3
2019-03-17T06:48:54.221Z,986.4
2019-03-17T06:49:56.271Z,986.3
2019-03-17T06:50:58.300Z,986.4
2019-03-17T06:52:00.353Z,986.4
2019-03-17T06:53:02.403Z,986.4
2019-03-17T06:54:04.472Z,986.3
2019-03-17T06:55:06.495Z,986.3
2019-03-17T06:56:08.555Z,986.3
2019-03-17T06:57:10.681Z,986.4
2019-03-17T06:58:12.785Z,986.3
2019-03-17T06:59:17.871Z,986.3
2019-03-17T07:00:20.671Z,986.4
2019-03-17T07:01:23.096Z,986.4
2019-03-17T07:02:25.636Z,986.4
2019-03-17T07:03:27.774Z,986.4
2019-03-17T07:04:29.885Z,986.4
2019-03-17T07:05:32.018Z,986.5
2019-03-17T07:06:34.132Z,986.4
2019-03-17T07:07:44.873Z,986.3
2019-03-17T07:08:47.394Z,986.4
2019-03-17T07:09:49.953Z,986.3
2019-03-17T07:10:52.060Z,986.4
2019-03-17T07:11:54.276Z,986.4
2019-03-17T07:12:56.416Z,986.5
2019-03-17T07:13:58.818Z,986.4
2019-03-17T07:15:01.031Z,986.3
2019-03-17T07:16:03.437Z,986.3
2019-03-17T07:17:05.584Z,986.5
2019-03-17T07:18:07.694Z,986.5
2019-03-17T07:19:09.845Z,986.4
2019-03-17T07:20:11.957Z,986.4
2019-03-17T07:21:14.102Z,986.4
2019-03-17T07:22:16.247Z,986.5
2019-03-17T07:23:18.348Z,986.4
2019-03-17T07:24:20.475Z,986.4
2019-03-17T07:25:23.006Z,986.3
2019-03-17T07:26:25.158Z,986.5
2019-03-17T07:27:27.266Z,986.4
2019-03-17T07:28:29.399Z,986.4
2019-03-17T07:29:31.517Z,986.5
2019-03-17T07:30:33.646Z,986.5
2019-03-17T07:31:35.779Z,986.4
2019-03-17T07:32:38.180Z,986.4
2019-03-17T07:33:40.297Z,986.4
2019-03-17T07:34:42.417Z,986.5
2019-03-17T07:35:46.742Z,986.3
2019-03-17T07:36:48.896Z,986.4
2019-03-17T07:37:57.514Z,986.5
2019-03-17T07:39:12.493Z,986.5
2019-03-17T07:40:15.007Z,986.6
2019-03-17T07:41:17.153Z,986.5
2019-03-17T07:42:19.284Z,986.6
2019-03-17T07:43:21.407Z,986.7
2019-03-17T07:44:23.510Z,986.7
2019-03-17T07:45:25.632Z,986.7
2019-03-17T07:46:28.144Z,986.6
2019-03-17T07:47:30.257Z,986.6
2019-03-17T07:48:32.411Z,986.6
2019-03-17T07:49:34.529Z,986.6
2019-03-17T07:50:36.705Z,986.6
2019-03-17T07:51:38.900Z,986.7
2019-03-17T07:52:41.044Z,986.7
2019-03-17T07:53:43.162Z,986.7
2019-03-17T07:54:45.278Z,986.7
2019-03-17T07:55:47.407Z,986.7
2019-03-17T07:56:49.928Z,986.7
2019-03-17T07:57:52.065Z,986.7
2019-03-17T07:58:54.190Z,986.7
2019-03-17T07:59:56.330Z,986.8
2019-03-17T08:01:01.399Z,986.7
2019-03-17T08:02:03.526Z,986.7
2019-03-17T08:03:05.736Z,986.7
2019-03-17T08:04:08.127Z,986.7
2019-03-17T08:05:10.564Z,986.7
2019-03-17T08:06:13.372Z,986.7
2019-03-17T08:07:15.495Z,986.6
2019-03-17T08:08:21.047Z,986.6
2019-03-17T08:09:23.754Z,986.5
2019-03-17T08:10:25.928Z,986.6
2019-03-17T08:11:28.364Z,986.5
2019-03-17T08:12:30.779Z,986.5
2019-03-17T08:13:32.898Z,986.5
2019-03-17T08:14:35.285Z,986.6
2019-03-17T08:15:37.435Z,986.7
2019-03-17T08:16:39.574Z,986.6
2019-03-17T08:17:41.692Z,986.6
2019-03-17T08:18:44.111Z,986.7
2019-03-17T08:19:46.543Z,986.6
2019-03-17T08:20:48.703Z,986.6
2019-03-17T08:21:50.841Z,986.7
2019-03-17T08:22:52.957Z,986.7
2019-03-17T08:23:55.078Z,986.6
2019-03-17T08:24:57.473Z,986.7
2019-03-17T08:25:59.999Z,986.7
2019-03-17T08:27:02.112Z,986.8
2019-03-17T08:28:04.514Z,986.8
2019-03-17T08:29:06.653Z,986.8
2019-03-17T08:30:09.060Z,986.7
2019-03-17T08:31:11.195Z,986.8
2019-03-17T08:32:13.318Z,986.6
2019-03-17T08:33:15.440Z,986.6
2019-03-17T08:34:17.827Z,986.7
2019-03-17T08:35:19.957Z,986.7
2019-03-17T08:36:22.353Z,986.6
2019-03-17T08:37:24.472Z,986.8
2019-03-17T08:38:26.895Z,986.7
2019-03-17T08:39:29.080Z,986.8
2019-03-17T08:40:31.489Z,986.9
2019-03-17T08:41:34.008Z,986.8
2019-03-17T08:42:39.671Z,986.9
2019-03-17T08:43:54.671Z,986.9
2019-03-17T08:44:57.267Z,986.8
2019-03-17T08:45:59.382Z,986.9
2019-03-17T08:47:01.530Z,986.9
2019-03-17T08:48:03.977Z,986.7
2019-03-17T08:49:06.099Z,986.9
2019-03-17T08:50:08.238Z,987
2019-03-17T08:51:10.365Z,987.1
2019-03-17T08:52:12.492Z,987.2
2019-03-17T08:53:14.625Z,987.2
2019-03-17T08:54:16.746Z,987.6
2019-03-17T08:55:19.186Z,987.8
2019-03-17T08:56:21.306Z,987.8
2019-03-17T08:57:23.437Z,987.9
2019-03-17T08:58:25.589Z,987.9
2019-03-17T08:59:27.742Z,988
2019-03-17T09:00:29.891Z,988
2019-03-17T09:01:32.031Z,988
2019-03-17T09:02:34.173Z,988
2019-03-17T09:03:36.578Z,988
2019-03-17T09:04:38.714Z,988
2019-03-17T09:05:41.116Z,988
2019-03-17T09:06:43.532Z,988.1
2019-03-17T09:07:45.633Z,988
2019-03-17T09:08:47.874Z,988.1
2019-03-17T09:09:50.073Z,988.1
2019-03-17T09:10:52.207Z,988.1
2019-03-17T09:11:54.632Z,988.2
2019-03-17T09:12:57.222Z,988.2
2019-03-17T09:13:59.731Z,988.3
2019-03-17T09:15:02.541Z,988.3
2019-03-17T09:16:04.667Z,988.3
2019-03-17T09:17:15.000Z,988.3
2019-03-17T09:18:17.419Z,988.2
2019-03-17T09:19:19.531Z,988.2
2019-03-17T09:20:22.053Z,988.2
2019-03-17T09:21:24.192Z,988.1
2019-03-17T09:22:26.320Z,988.2
2019-03-17T09:23:28.711Z,988.3
2019-03-17T09:24:30.856Z,988.3
2019-03-17T09:25:32.974Z,988.3
2019-03-17T09:26:35.095Z,988.4
2019-03-17T09:27:37.227Z,988.4
2019-03-17T09:28:39.337Z,988.4
2019-03-17T09:29:41.485Z,988.5
2019-03-17T09:30:43.647Z,988.4
2019-03-17T09:31:45.782Z,988.5
2019-03-17T09:32:48.216Z,988.6
2019-03-17T09:33:50.375Z,988.6
2019-03-17T09:34:52.493Z,988.6
2019-03-17T09:35:54.606Z,988.8
2019-03-17T09:36:56.756Z,988.7
2019-03-17T09:37:58.942Z,988.7
2019-03-17T09:39:01.076Z,988.7
2019-03-17T09:40:03.205Z,988.8
2019-03-17T09:41:05.347Z,988.8
2019-03-17T09:42:07.458Z,988.7
2019-03-17T09:43:12.721Z,988.7
2019-03-17T09:44:14.856Z,988.7
2019-03-17T09:45:17.363Z,988.7
2019-03-17T09:46:19.498Z,988.7
2019-03-17T09:47:21.908Z,988.6
2019-03-17T09:48:24.073Z,988.6
2019-03-17T09:49:26.192Z,988.7
2019-03-17T09:50:28.331Z,988.8
2019-03-17T09:51:30.451Z,988.8
2019-03-17T09:52:32.580Z,988.8
2019-03-17T09:53:34.993Z,988.9
2019-03-17T09:54:37.388Z,989
2019-03-17T09:55:39.508Z,988.9
2019-03-17T09:56:41.642Z,988.8
2019-03-17T09:57:43.746Z,988.7
2019-03-17T09:58:46.512Z,988.8
2019-03-17T09:59:48.660Z,988.8
2019-03-17T10:00:50.768Z,988.7
2019-03-17T10:01:53.201Z,988.7
2019-03-17T10:02:55.327Z,988.7
2019-03-17T10:03:57.844Z,988.7
2019-03-17T10:04:59.959Z,988.8
2019-03-17T10:06:02.273Z,988.8
2019-03-17T10:07:04.997Z,988.8
2019-03-17T10:08:07.122Z,988.9
2019-03-17T10:09:09.230Z,989
2019-03-17T10:10:11.367Z,989
2019-03-17T10:11:13.490Z,989
2019-03-17T10:12:15.626Z,989.1
2019-03-17T10:13:18.068Z,989
2019-03-17T10:14:20.211Z,989.2
2019-03-17T10:15:22.324Z,989.2
2019-03-17T10:16:24.493Z,989.2
2019-03-17T10:17:26.613Z,989.1
2019-03-17T10:18:28.714Z,989
2019-03-17T10:19:30.841Z,989.1
2019-03-17T10:20:32.968Z,989.2
2019-03-17T10:21:35.078Z,989.1
2019-03-17T10:22:40.150Z,989.2
2019-03-17T10:23:42.277Z,989.2
2019-03-17T10:24:44.688Z,989.1
2019-03-17T10:25:46.829Z,989.1
2019-03-17T10:26:49.250Z,989.2
2019-03-17T10:27:51.368Z,989.1
2019-03-17T10:28:53.499Z,989.2
2019-03-17T10:29:55.632Z,989.2
2019-03-17T10:30:58.049Z,989.3
2019-03-17T10:32:00.184Z,989.3
2019-03-17T10:33:02.339Z,989.3
2019-03-17T10:34:05.131Z,989.3
2019-03-17T10:35:07.645Z,989.2
2019-03-17T10:36:09.760Z,989.2
2019-03-17T10:37:11.880Z,989.2
2019-03-17T10:38:14.285Z,989.2
2019-03-17T10:39:16.418Z,989.2
2019-03-17T10:40:18.826Z,989.2
2019-03-17T10:41:21.514Z,989.1
2019-03-17T10:42:23.645Z,989.2
2019-03-17T10:43:25.770Z,989.2
2019-03-17T10:44:27.878Z,989.2
2019-03-17T10:45:30.046Z,989.1
2019-03-17T10:46:32.794Z,989.1
2019-03-17T10:47:34.939Z,989.1
2019-03-17T10:48:37.052Z,989.1
2019-03-17T10:49:39.183Z,989
2019-03-17T10:50:50.114Z,989
2019-03-17T10:51:52.243Z,989
2019-03-17T10:52:54.370Z,989.1
2019-03-17T10:53:56.499Z,989.1
2019-03-17T10:54:58.602Z,989.2
2019-03-17T10:56:00.726Z,989.2
2019-03-17T10:57:02.874Z,989.3
2019-03-17T10:58:05.283Z,989.3
2019-03-17T10:59:07.477Z,989.4
2019-03-17T11:00:09.613Z,989.5
2019-03-17T11:01:11.730Z,989.4
2019-03-17T11:02:13.855Z,989.5
2019-03-17T11:03:15.991Z,989.4
2019-03-17T11:04:18.383Z,989.4
2019-03-17T11:05:20.558Z,989.4
2019-03-17T11:06:22.690Z,989.4
2019-03-17T11:07:24.807Z,989.4
2019-03-17T11:08:26.974Z,989.5
2019-03-17T11:09:29.369Z,989.5
2019-03-17T11:10:31.506Z,989.5
2019-03-17T11:11:33.630Z,989.6
2019-03-17T11:12:35.769Z,989.6
2019-03-17T11:13:37.882Z,989.6
2019-03-17T11:14:40.018Z,989.5
2019-03-17T11:15:42.465Z,989.5
2019-03-17T11:16:44.568Z,989.5
2019-03-17T11:17:46.709Z,989.5
2019-03-17T11:18:48.938Z,989.4
2019-03-17T11:19:51.446Z,989.5
2019-03-17T11:20:53.615Z,989.6
2019-03-17T11:21:55.764Z,989.6
2019-03-17T11:22:57.979Z,989.7
2019-03-17T11:24:00.118Z,989.6
2019-03-17T11:25:02.525Z,989.8
2019-03-17T11:26:04.686Z,989.7
2019-03-17T11:27:06.809Z,989.8
2019-03-17T11:28:08.928Z,989.8
2019-03-17T11:29:11.420Z,989.8
2019-03-17T11:30:13.560Z,989.8
2019-03-17T11:31:15.679Z,989.8
2019-03-17T11:32:18.209Z,989.8
2019-03-17T11:33:20.615Z,989.8
2019-03-17T11:34:23.030Z,989.9
2019-03-17T11:35:25.161Z,989.8
2019-03-17T11:36:27.303Z,989.8
2019-03-17T11:37:29.487Z,989.8
2019-03-17T11:38:31.632Z,989.8
2019-03-17T11:39:38.386Z,989.8
2019-03-17T11:40:40.870Z,989.8
2019-03-17T11:41:43.011Z,989.8
2019-03-17T11:42:45.137Z,989.8
2019-03-17T11:43:50.892Z,989.8
2019-03-17T11:44:53.004Z,989.9
2019-03-17T11:45:55.146Z,989.8
2019-03-17T11:46:57.581Z,989.8
2019-03-17T11:47:59.775Z,989.8
2019-03-17T11:49:01.922Z,989.8
2019-03-17T11:50:04.049Z,989.8
2019-03-17T11:51:06.198Z,989.8
2019-03-17T11:52:08.786Z,989.8
2019-03-17T11:53:10.933Z,989.8
2019-03-17T11:54:13.044Z,989.8
2019-03-17T11:55:15.271Z,989.9
2019-03-17T11:56:17.417Z,989.8
2019-03-17T11:57:19.554Z,989.9
2019-03-17T11:58:21.693Z,990
2019-03-17T11:59:23.834Z,989.9
2019-03-17T12:00:25.964Z,990
2019-03-17T12:01:28.497Z,990
2019-03-17T12:02:30.641Z,990.1
2019-03-17T12:03:32.770Z,990.1
2019-03-17T12:04:34.927Z,990
2019-03-17T12:05:37.044Z,990.1
2019-03-17T12:06:39.577Z,990.2
2019-03-17T12:07:41.769Z,990.2
2019-03-17T12:08:43.975Z,990.2
2019-03-17T12:09:50.802Z,990.2
2019-03-17T12:10:52.954Z,990.3
2019-03-17T12:11:55.075Z,990.3
2019-03-17T12:12:57.205Z,990.3
2019-03-17T12:13:59.424Z,990.3
2019-03-17T12:15:01.535Z,990.2
2019-03-17T12:16:04.253Z,990.2
2019-03-17T12:17:06.489Z,990.2
2019-03-17T12:18:08.626Z,990.2
2019-03-17T12:19:10.741Z,990.2
2019-03-17T12:20:12.879Z,990.2
2019-03-17T12:21:15.003Z,990.2
2019-03-17T12:22:17.122Z,990.2
2019-03-17T12:23:19.575Z,990.3
2019-03-17T12:24:21.700Z,990.3
2019-03-17T12:25:23.850Z,990.3
2019-03-17T12:26:26.005Z,990.3
2019-03-17T12:27:28.151Z,990.3
2019-03-17T12:28:30.561Z,990.2
2019-03-17T12:29:32.692Z,990.2
2019-03-17T12:30:34.844Z,990.2
2019-03-17T12:31:36.953Z,990.3
2019-03-17T12:32:39.094Z,990.4
2019-03-17T12:33:41.220Z,990.4
2019-03-17T12:34:43.350Z,990.3
2019-03-17T12:35:45.788Z,990.3
2019-03-17T12:36:47.931Z,990.4
2019-03-17T12:37:50.060Z,990.3
2019-03-17T12:38:52.195Z,990.4
2019-03-17T12:40:03.407Z,990.4
2019-03-17T12:41:05.629Z,990.3
2019-03-17T12:42:07.759Z,990.3
2019-03-17T12:43:09.865Z,990.3
2019-03-17T12:44:12.008Z,990.3
2019-03-17T12:45:14.130Z,990.4
2019-03-17T12:46:16.286Z,990.4
2019-03-17T12:47:18.429Z,990.3
2019-03-17T12:48:20.536Z,990.4
2019-03-17T12:49:22.948Z,990.4
2019-03-17T12:50:25.070Z,990.3
2019-03-17T12:51:27.498Z,990.2
2019-03-17T12:52:30.000Z,990.3
2019-03-17T12:53:32.146Z,990.3
2019-03-17T12:54:34.557Z,990.2
2019-03-17T12:55:36.680Z,990.3
2019-03-17T12:56:38.847Z,990.3
2019-03-17T12:57:40.955Z,990.3
2019-03-17T12:58:43.121Z,990.2
2019-03-17T12:59:45.236Z,990.2
2019-03-17T13:00:47.682Z,990.2
2019-03-17T13:01:50.081Z,990.2
2019-03-17T13:02:52.497Z,990.3
2019-03-17T13:03:54.644Z,990.3
2019-03-17T13:04:56.756Z,990.3
2019-03-17T13:05:58.893Z,990.2
2019-03-17T13:07:01.334Z,990.2
2019-03-17T13:08:03.469Z,990.2
2019-03-17T13:09:06.179Z,990.2
2019-03-17T13:10:16.605Z,990.3
2019-03-17T13:11:18.903Z,990.3
2019-03-17T13:12:21.452Z,990.4
2019-03-17T13:13:23.865Z,990.3
2019-03-17T13:14:26.273Z,990.3
2019-03-17T13:15:28.409Z,990.3
2019-03-17T13:16:30.568Z,990.3
2019-03-17T13:17:32.681Z,990.3
2019-03-17T13:18:34.842Z,990.2
2019-03-17T13:19:36.979Z,990.3
2019-03-17T13:20:39.111Z,990.3
2019-03-17T13:21:41.277Z,990.4
2019-03-17T13:22:43.402Z,990.3
2019-03-17T13:23:45.538Z,990.2
2019-03-17T13:24:47.645Z,990.2
2019-03-17T13:25:49.795Z,990.3
2019-03-17T13:26:52.205Z,990.1
2019-03-17T13:27:54.740Z,990.3
2019-03-17T13:28:56.875Z,990.2